Riverdale, Maryland
Current Conditions -  °F | °C
As of 9:30 AM on Wednesday 22 Oct 2014 (Local Time) from KCGS Reporting Station
Overcast Overcast  
Wind Chill: 54°   Ceiling: 6000
Heat Index: 54°   Visibility: 5mi
Dew Point: 52°   Wind: 8mph
Humidity: 94%   Direction: 340°NNW
Pressure: 29.91"   Gusts: NA
Location:  38.96°N, 76.93°W
Report Text: KCGS 221330Z AUTO 34007KT 5SM SCT019 SCT032 OVC060 12/11 A2991 RMK AO1
Loading
Personal Weather Stations






























Interactive Weather Map
Tropical Storm Tracking
New forecast layout! Learn more

10-Day Weather Forecast

Advertisements
Track Severe Weather on mobile